createdAt,value
2019-01-11T00:01:01.105Z,18.37
2019-01-11T00:02:10.460Z,18.36
2019-01-11T00:03:19.265Z,18.39
2019-01-11T00:04:28.457Z,18.37
2019-01-11T00:05:37.285Z,18.37
2019-01-11T00:06:46.355Z,18.41
2019-01-11T00:07:55.167Z,18.39
2019-01-11T00:09:03.989Z,18.33
2019-01-11T00:10:12.846Z,18.39
2019-01-11T00:11:21.923Z,18.39
2019-01-11T00:12:30.995Z,18.41
2019-01-11T00:13:40.321Z,18.37
2019-01-11T00:14:49.404Z,18.35
2019-01-11T00:15:59.085Z,18.36
2019-01-11T00:17:07.935Z,18.33
2019-01-11T00:18:16.736Z,18.32
2019-01-11T00:19:25.553Z,18.36
2019-01-11T00:20:34.381Z,18.35
2019-01-11T00:21:43.560Z,18.33
2019-01-11T00:22:52.368Z,18.36
2019-01-11T00:24:01.195Z,18.44
2019-01-11T00:25:10.285Z,18.39
2019-01-11T00:26:19.105Z,18.36
2019-01-11T00:27:27.945Z,18.37
2019-01-11T00:28:37.282Z,18.44
2019-01-11T00:29:46.356Z,18.33
2019-01-11T00:30:55.178Z,18.33
2019-01-11T00:32:04.242Z,18.27
2019-01-11T00:33:13.383Z,18.37
2019-01-11T00:34:22.219Z,18.35
2019-01-11T00:35:31.034Z,18.35
2019-01-11T00:36:40.388Z,18.32
2019-01-11T00:37:49.213Z,18.33
2019-01-11T00:38:58.054Z,18.32
2019-01-11T00:40:07.126Z,18.32
2019-01-11T00:41:16.216Z,18.29
2019-01-11T00:42:25.304Z,18.3
2019-01-11T00:43:34.370Z,18.29
2019-01-11T00:44:43.241Z,18.37
2019-01-11T00:45:52.327Z,18.33
2019-01-11T00:47:01.679Z,18.32
2019-01-11T00:48:10.517Z,18.33
2019-01-11T00:49:19.601Z,18.29
2019-01-11T00:50:29.064Z,18.33
2019-01-11T00:51:38.393Z,18.35
2019-01-11T00:52:47.517Z,18.35
2019-01-11T00:53:56.603Z,18.33
2019-01-11T00:55:06.036Z,18.35
2019-01-11T00:56:15.306Z,18.29
2019-01-11T00:57:24.413Z,18.29
2019-01-11T00:58:33.750Z,18.3
2019-01-11T00:59:42.863Z,18.32
2019-01-11T01:00:51.685Z,18.33
2019-01-11T01:02:01.310Z,18.32
2019-01-11T01:03:10.667Z,18.32
2019-01-11T01:04:19.481Z,18.32
2019-01-11T01:05:28.325Z,18.3
2019-01-11T01:06:37.681Z,18.32
2019-01-11T01:07:46.587Z,18.21
2019-01-11T01:08:55.674Z,18.39
2019-01-11T01:10:04.521Z,18.33
2019-01-11T01:11:13.605Z,18.2
2019-01-11T01:12:22.430Z,18.32
2019-01-11T01:13:31.928Z,18.27
2019-01-11T01:14:41.230Z,18.32
2019-01-11T01:15:50.060Z,18.32
2019-01-11T01:16:59.405Z,18.32
2019-01-11T01:18:08.220Z,18.29
2019-01-11T01:19:22.243Z,18.32
2019-01-11T01:20:31.337Z,18.35
2019-01-11T01:21:40.173Z,18.37
2019-01-11T01:22:49.526Z,18.37
2019-01-11T01:23:58.347Z,18.32
2019-01-11T01:25:07.586Z,18.35
2019-01-11T01:26:17.223Z,18.3
2019-01-11T01:27:26.047Z,18.29
2019-01-11T01:28:35.401Z,18.21
2019-01-11T01:29:45.030Z,18.35
2019-01-11T01:30:53.897Z,18.23
2019-01-11T01:32:02.707Z,18.32
2019-01-11T01:33:12.855Z,18.27
2019-01-11T01:34:21.950Z,18.32
2019-01-11T01:35:31.285Z,18.23
2019-01-11T01:36:40.720Z,18.17
2019-01-11T01:37:50.048Z,18.18
2019-01-11T01:38:59.146Z,18.23
2019-01-11T01:40:08.485Z,18.23
2019-01-11T01:41:17.551Z,18.32
2019-01-11T01:42:26.751Z,18.18
2019-01-11T01:43:36.099Z,18.23
2019-01-11T01:44:44.900Z,18.2
2019-01-11T01:45:53.976Z,18.2
2019-01-11T01:47:03.319Z,18.26
2019-01-11T01:48:12.707Z,18.21
2019-01-11T01:49:26.464Z,18.32
2019-01-11T01:50:35.736Z,18.21
2019-01-11T01:51:44.811Z,18.21
2019-01-11T01:52:53.912Z,18.15
2019-01-11T01:54:02.781Z,18.26
2019-01-11T01:55:12.109Z,18.35
2019-01-11T01:56:20.922Z,18.32
2019-01-11T01:57:30.258Z,18.25
2019-01-11T01:58:39.065Z,18.21
2019-01-11T01:59:47.867Z,18.3
2019-01-11T02:00:57.192Z,18.33
2019-01-11T02:02:06.287Z,18.25
2019-01-11T02:03:15.388Z,18.2
2019-01-11T02:04:24.523Z,18.23
2019-01-11T02:05:33.438Z,18.15
2019-01-11T02:06:42.254Z,18.2
2019-01-11T02:07:51.071Z,18.21
2019-01-11T02:09:00.154Z,18.25
2019-01-11T02:10:09.247Z,18.21
2019-01-11T02:11:18.179Z,18.23
2019-01-11T02:12:26.985Z,18.23
2019-01-11T02:13:36.069Z,18.21
2019-01-11T02:14:45.161Z,18.21
2019-01-11T02:15:54.219Z,18.2
2019-01-11T02:17:03.085Z,18.25
2019-01-11T02:18:12.165Z,18.2
2019-01-11T02:19:21.249Z,18.25
2019-01-11T02:20:30.076Z,18.25
2019-01-11T02:21:38.888Z,18.26
2019-01-11T02:22:47.810Z,18.2
2019-01-11T02:23:56.944Z,18.2
2019-01-11T02:25:06.046Z,18.21
2019-01-11T02:26:14.851Z,18.27
2019-01-11T02:27:23.922Z,18.21
2019-01-11T02:28:32.753Z,18.23
2019-01-11T02:29:41.868Z,18.2
2019-01-11T02:30:50.692Z,18.18
2019-01-11T02:32:00.262Z,18.25
2019-01-11T02:33:09.357Z,18.21
2019-01-11T02:34:18.752Z,18.25
2019-01-11T02:35:27.568Z,18.23
2019-01-11T02:36:37.164Z,18.2
2019-01-11T02:37:46.502Z,18.17
2019-01-11T02:38:55.318Z,18.21
2019-01-11T02:40:04.514Z,18.2
2019-01-11T02:41:14.411Z,18.18
2019-01-11T02:42:23.560Z,18.18
2019-01-11T02:43:32.638Z,18.2
2019-01-11T02:44:41.467Z,18.29
2019-01-11T02:45:50.942Z,18.18
2019-01-11T02:47:00.296Z,18.18
2019-01-11T02:48:09.114Z,18.23
2019-01-11T02:49:18.200Z,18.23
2019-01-11T02:50:27.533Z,18.21
2019-01-11T02:51:36.690Z,18.23
2019-01-11T02:52:45.792Z,18.21
2019-01-11T02:53:54.887Z,18.21
2019-01-11T02:55:03.980Z,18.2
2019-01-11T02:56:12.808Z,18.2
2019-01-11T02:57:21.657Z,18.18
2019-01-11T02:58:30.773Z,18.21
2019-01-11T02:59:39.585Z,18.21
2019-01-11T03:00:48.664Z,18.23
2019-01-11T03:01:57.477Z,18.17
2019-01-11T03:03:06.883Z,18.21
2019-01-11T03:04:15.986Z,18.27
2019-01-11T03:05:25.424Z,18.12
2019-01-11T03:06:34.916Z,18.2
2019-01-11T03:07:44.014Z,18.2
2019-01-11T03:08:52.848Z,18.14
2019-01-11T03:10:01.965Z,18.21
2019-01-11T03:11:11.078Z,18.18
2019-01-11T03:12:20.154Z,18.15
2019-01-11T03:13:29.243Z,18.23
2019-01-11T03:14:38.143Z,18.21
2019-01-11T03:15:47.240Z,18.15
2019-01-11T03:16:56.350Z,18.14
2019-01-11T03:18:05.689Z,18.17
2019-01-11T03:19:15.046Z,18.17
2019-01-11T03:20:24.118Z,18.12
2019-01-11T03:21:32.934Z,18.12
2019-01-11T03:22:42.268Z,18.2
2019-01-11T03:23:51.635Z,18.15
2019-01-11T03:25:00.986Z,18.18
2019-01-11T03:26:10.635Z,18.2
2019-01-11T03:27:19.701Z,18.14
2019-01-11T03:28:28.526Z,18.12
2019-01-11T03:29:37.337Z,18.25
2019-01-11T03:30:46.722Z,18.15
2019-01-11T03:31:56.188Z,18.15
2019-01-11T03:33:05.287Z,18.14
2019-01-11T03:34:14.395Z,18.14
2019-01-11T03:35:23.481Z,18.17
2019-01-11T03:36:32.858Z,18.2
2019-01-11T03:37:42.187Z,18.18
2019-01-11T03:38:51.076Z,18.08
2019-01-11T03:40:00.314Z,18.17
2019-01-11T03:41:09.455Z,18.14
2019-01-11T03:42:18.551Z,18.11
2019-01-11T03:43:27.378Z,18.07
2019-01-11T03:44:36.515Z,18.05
2019-01-11T03:45:45.347Z,18.11
2019-01-11T03:46:54.169Z,18.21
2019-01-11T03:48:02.992Z,18.1
2019-01-11T03:49:11.889Z,18.1
2019-01-11T03:50:20.726Z,18.12
2019-01-11T03:51:29.563Z,18.11
2019-01-11T03:52:38.915Z,18.15
2019-01-11T03:53:47.741Z,18.14
2019-01-11T03:54:56.849Z,18.2
2019-01-11T03:56:05.680Z,18.12
2019-01-11T03:57:14.762Z,18.2
2019-01-11T03:58:23.569Z,18.1
2019-01-11T03:59:32.431Z,18.11
2019-01-11T04:00:41.594Z,18.02
2019-01-11T04:01:50.720Z,18.1
2019-01-11T04:03:00.603Z,18.07
2019-01-11T04:04:09.436Z,18.11
2019-01-11T04:05:18.270Z,18.1
2019-01-11T04:06:27.460Z,18.08
2019-01-11T04:07:36.557Z,18.05
2019-01-11T04:08:45.389Z,18.08
2019-01-11T04:09:54.246Z,18.1
2019-01-11T04:11:03.078Z,18.03
2019-01-11T04:12:12.153Z,18.08
2019-01-11T04:13:21.267Z,18.11
2019-01-11T04:14:37.639Z,17.99
2019-01-11T04:15:46.506Z,18.05
2019-01-11T04:16:55.571Z,18.1
2019-01-11T04:18:04.385Z,18.11
2019-01-11T04:19:13.727Z,18.08
2019-01-11T04:20:22.540Z,18.11
2019-01-11T04:21:31.892Z,18.07
2019-01-11T04:22:41.504Z,18.07
2019-01-11T04:23:50.640Z,18.1
2019-01-11T04:24:59.469Z,18.14
2019-01-11T04:26:08.292Z,18.12
2019-01-11T04:27:17.657Z,18.08
2019-01-11T04:28:26.482Z,18.05
2019-01-11T04:29:35.359Z,18.11
2019-01-11T04:30:44.442Z,18.08
2019-01-11T04:31:53.806Z,18.03
2019-01-11T04:33:02.895Z,18.02
2019-01-11T04:34:12.009Z,18.17
2019-01-11T04:35:20.859Z,18.11
2019-01-11T04:36:30.528Z,18.11
2019-01-11T04:37:39.357Z,18.11
2019-01-11T04:38:48.178Z,18.07
2019-01-11T04:39:57.009Z,18.11
2019-01-11T04:41:05.947Z,18.05
2019-01-11T04:42:15.293Z,18.1
2019-01-11T04:43:24.224Z,18.07
2019-01-11T04:44:33.076Z,18.03
2019-01-11T04:45:42.464Z,18.02
2019-01-11T04:46:51.636Z,18.03
2019-01-11T04:48:00.978Z,18.07
2019-01-11T04:49:10.117Z,18.05
2019-01-11T04:50:19.233Z,18.02
2019-01-11T04:51:28.059Z,18.07
2019-01-11T04:52:37.143Z,18.12
2019-01-11T04:53:46.785Z,18.02
2019-01-11T04:54:55.612Z,18.02
2019-01-11T04:56:05.276Z,18
2019-01-11T04:57:14.376Z,18.02
2019-01-11T04:58:23.585Z,18.03
2019-01-11T04:59:32.674Z,18.07
2019-01-11T05:00:41.501Z,17.99
2019-01-11T05:01:50.863Z,18.07
2019-01-11T05:02:59.719Z,18.03
2019-01-11T05:04:08.657Z,18
2019-01-11T05:05:17.519Z,18.11
2019-01-11T05:06:26.634Z,18.07
2019-01-11T05:07:35.740Z,18.05
2019-01-11T05:08:44.592Z,18.03
2019-01-11T05:09:53.991Z,18.05
2019-01-11T05:11:02.877Z,18.05
2019-01-11T05:12:11.956Z,18.05
2019-01-11T05:13:21.066Z,18.03
2019-01-11T05:14:30.160Z,18.03
2019-01-11T05:15:39.305Z,18.02
2019-01-11T05:16:48.425Z,18.02
2019-01-11T05:17:58.069Z,18.03
2019-01-11T05:19:06.908Z,18.02
2019-01-11T05:20:21.173Z,18.03
2019-01-11T05:21:30.537Z,18.07
2019-01-11T05:22:39.361Z,18.03
2019-01-11T05:23:48.473Z,18.07
2019-01-11T05:24:57.822Z,18.05
2019-01-11T05:26:06.939Z,18.08
2019-01-11T05:27:16.347Z,18.08
2019-01-11T05:28:25.176Z,17.96
2019-01-11T05:29:34.019Z,17.96
2019-01-11T05:30:43.182Z,18.07
2019-01-11T05:31:52.021Z,18.03
2019-01-11T05:33:00.888Z,18.05
2019-01-11T05:34:09.987Z,18.02
2019-01-11T05:35:19.346Z,18.07
2019-01-11T05:36:28.473Z,18.1
2019-01-11T05:37:37.691Z,18.1
2019-01-11T05:38:46.884Z,17.99
2019-01-11T05:39:55.696Z,18.03
2019-01-11T05:41:05.061Z,18.08
2019-01-11T05:42:14.424Z,18.03
2019-01-11T05:43:23.511Z,18.05
2019-01-11T05:44:32.431Z,18.07
2019-01-11T05:45:41.512Z,18.11
2019-01-11T05:46:50.331Z,17.99
2019-01-11T05:47:59.171Z,17.97
2019-01-11T05:49:08.278Z,18.08
2019-01-11T05:50:23.777Z,18.07
2019-01-11T05:51:33.506Z,18.02
2019-01-11T05:52:42.585Z,18.07
2019-01-11T05:53:51.676Z,18.07
2019-01-11T05:55:01.012Z,18.05
2019-01-11T05:56:09.886Z,18.08
2019-01-11T05:57:18.960Z,18.05
2019-01-11T05:58:27.786Z,18.08
2019-01-11T05:59:36.895Z,18.08
2019-01-11T06:00:46.011Z,18.11
2019-01-11T06:01:55.108Z,18.1
2019-01-11T06:03:03.942Z,18.12
2019-01-11T06:04:12.762Z,18.11
2019-01-11T06:05:21.583Z,18.11
2019-01-11T06:06:31.228Z,18.14
2019-01-11T06:07:40.129Z,18.1
2019-01-11T06:08:49.237Z,18.08
2019-01-11T06:09:58.081Z,18.11
2019-01-11T06:11:07.980Z,18.17
2019-01-11T06:12:17.082Z,18.03
2019-01-11T06:13:25.985Z,18.14
2019-01-11T06:14:35.318Z,18.1
2019-01-11T06:15:44.190Z,18.11
2019-01-11T06:16:53.300Z,18.14
2019-01-11T06:18:02.365Z,18.07
2019-01-11T06:19:11.451Z,18.18
2019-01-11T06:20:20.523Z,18.07
2019-01-11T06:21:34.857Z,18.05
2019-01-11T06:22:43.695Z,18.08
2019-01-11T06:23:52.551Z,18.08
2019-01-11T06:25:01.397Z,18.08
2019-01-11T06:26:10.664Z,18.07
2019-01-11T06:27:19.460Z,18.07
2019-01-11T06:28:28.309Z,18.11
2019-01-11T06:29:37.151Z,17.99
2019-01-11T06:30:46.061Z,17.97
2019-01-11T06:31:55.152Z,18
2019-01-11T06:33:03.968Z,17.96
2019-01-11T06:34:12.778Z,18.03
2019-01-11T06:35:22.145Z,17.99
2019-01-11T06:36:31.855Z,18.05
2019-01-11T06:37:40.683Z,18.08
2019-01-11T06:38:49.760Z,18.08
2019-01-11T06:39:58.840Z,18.05
2019-01-11T06:41:07.904Z,18.05
2019-01-11T06:42:17.348Z,18.03
2019-01-11T06:43:26.170Z,18.12
2019-01-11T06:44:41.258Z,18
2019-01-11T06:45:50.377Z,18.07
2019-01-11T06:46:59.196Z,18.15
2019-01-11T06:48:08.330Z,18.05
2019-01-11T06:49:17.167Z,18.11
2019-01-11T06:50:26.251Z,18.1
2019-01-11T06:51:41.120Z,18.17
2019-01-11T06:52:50.216Z,18.11
2019-01-11T06:54:00.056Z,18.12
2019-01-11T06:55:09.135Z,18.2
2019-01-11T06:56:18.227Z,18.11
2019-01-11T06:57:27.044Z,18.14
2019-01-11T06:58:36.145Z,18.12
2019-01-11T06:59:45.234Z,18.18
2019-01-11T07:00:54.319Z,18.12
2019-01-11T07:02:03.670Z,18.15
2019-01-11T07:03:12.745Z,18.17
2019-01-11T07:04:21.558Z,18.12
2019-01-11T07:05:30.718Z,18.2
2019-01-11T07:06:39.546Z,18.12
2019-01-11T07:07:48.636Z,18.15
2019-01-11T07:08:57.728Z,18.17
2019-01-11T07:10:06.544Z,18.21
2019-01-11T07:11:15.676Z,18.18
2019-01-11T07:12:25.018Z,18.21
2019-01-11T07:13:33.846Z,18.15
2019-01-11T07:14:42.927Z,18.11
2019-01-11T07:15:52.028Z,18.15
2019-01-11T07:17:01.185Z,18.08
2019-01-11T07:18:10.275Z,18.2
2019-01-11T07:19:19.093Z,18.14
2019-01-11T07:20:27.894Z,18.25
2019-01-11T07:21:36.732Z,18.23
2019-01-11T07:22:45.866Z,18.15
2019-01-11T07:23:54.671Z,18.23
2019-01-11T07:25:04.019Z,18.2
2019-01-11T07:26:12.860Z,18.23
2019-01-11T07:27:21.681Z,18.18
2019-01-11T07:28:30.569Z,18.14
2019-01-11T07:29:39.398Z,18.25
2019-01-11T07:30:48.755Z,18.21
2019-01-11T07:31:57.819Z,18.25
2019-01-11T07:33:06.888Z,18.2
2019-01-11T07:34:16.072Z,18.2
2019-01-11T07:35:24.887Z,18.18
2019-01-11T07:36:33.701Z,18.21
2019-01-11T07:37:42.817Z,18.18
2019-01-11T07:38:51.639Z,18.23
2019-01-11T07:40:00.997Z,18.18
2019-01-11T07:41:10.346Z,18.18
2019-01-11T07:42:19.423Z,18.23
2019-01-11T07:43:29.069Z,18.25
2019-01-11T07:44:38.148Z,18.18
2019-01-11T07:45:47.269Z,18.21
2019-01-11T07:46:56.376Z,18.15
2019-01-11T07:48:05.476Z,18.23
2019-01-11T07:49:14.565Z,18.26
2019-01-11T07:50:30.098Z,18.23
2019-01-11T07:51:39.022Z,18.21
2019-01-11T07:52:48.151Z,18.2
2019-01-11T07:53:57.265Z,18.27
2019-01-11T07:55:06.345Z,18.18
2019-01-11T07:56:15.437Z,18.2
2019-01-11T07:57:24.644Z,18.2
2019-01-11T07:58:33.748Z,18.18
2019-01-11T07:59:42.573Z,18.23
2019-01-11T08:00:51.385Z,18.21
2019-01-11T08:02:00.215Z,18.23
2019-01-11T08:03:09.692Z,18.27
2019-01-11T08:04:18.540Z,18.23
2019-01-11T08:05:27.910Z,18.25
2019-01-11T08:06:36.744Z,18.2
2019-01-11T08:07:45.682Z,18.23
2019-01-11T08:08:56.004Z,18.23
2019-01-11T08:10:04.828Z,18.17
2019-01-11T08:11:14.456Z,18.27
2019-01-11T08:12:23.269Z,18.2
2019-01-11T08:13:32.123Z,18.2
2019-01-11T08:14:41.259Z,18.23
2019-01-11T08:15:50.077Z,18.2
2019-01-11T08:16:59.168Z,18.23
2019-01-11T08:18:07.985Z,18.21
2019-01-11T08:19:17.275Z,18.23
2019-01-11T08:20:26.148Z,18.27
2019-01-11T08:21:34.988Z,18.2
2019-01-11T08:22:43.824Z,18.21
2019-01-11T08:23:52.658Z,18.26
2019-01-11T08:25:01.739Z,18.2
2019-01-11T08:26:10.942Z,18.27
2019-01-11T08:27:20.030Z,18.23
2019-01-11T08:28:28.848Z,18.2
2019-01-11T08:29:37.955Z,18.18
2019-01-11T08:30:47.302Z,18.26
2019-01-11T08:31:56.764Z,18.23
2019-01-11T08:33:05.578Z,18.18
2019-01-11T08:34:14.937Z,18.23
2019-01-11T08:35:23.744Z,18.21
2019-01-11T08:36:33.950Z,18.25
2019-01-11T08:37:42.858Z,18.23
2019-01-11T08:38:52.202Z,18.2
2019-01-11T08:40:01.307Z,18.23
2019-01-11T08:41:10.141Z,18.2
2019-01-11T08:42:19.242Z,18.23
2019-01-11T08:43:28.681Z,18.23
2019-01-11T08:44:37.791Z,18.21
2019-01-11T08:45:46.902Z,18.2
2019-01-11T08:46:55.711Z,18.25
2019-01-11T08:48:04.542Z,18.18
2019-01-11T08:49:13.675Z,18.18
2019-01-11T08:50:22.749Z,18.2
2019-01-11T08:51:31.571Z,18.2
2019-01-11T08:52:40.386Z,18.2
2019-01-11T08:53:49.231Z,18.26
2019-01-11T08:54:58.356Z,18.27
2019-01-11T08:56:12.765Z,18.18
2019-01-11T08:57:21.573Z,18.2
2019-01-11T08:58:30.644Z,18.21
2019-01-11T08:59:39.730Z,18.2
2019-01-11T09:00:49.147Z,18.17
2019-01-11T09:01:57.951Z,18.25
2019-01-11T09:03:07.038Z,18.15
2019-01-11T09:04:15.868Z,18.27
2019-01-11T09:05:24.732Z,18.23
2019-01-11T09:06:33.653Z,18.23
2019-01-11T09:07:43.001Z,18.2
2019-01-11T09:08:52.356Z,18.21
2019-01-11T09:10:01.455Z,18.17
2019-01-11T09:11:10.555Z,18.23
2019-01-11T09:12:19.690Z,18.2
2019-01-11T09:13:29.018Z,18.23
2019-01-11T09:14:38.089Z,18.18
2019-01-11T09:15:47.174Z,18.25
2019-01-11T09:16:55.992Z,18.2
2019-01-11T09:18:04.847Z,18.18
2019-01-11T09:19:13.921Z,18.23
2019-01-11T09:20:23.030Z,18.2
2019-01-11T09:21:32.116Z,18.2
2019-01-11T09:22:46.295Z,18.21
2019-01-11T09:23:55.402Z,18.2
2019-01-11T09:25:04.498Z,18.21
2019-01-11T09:26:13.601Z,18.17
2019-01-11T09:27:22.436Z,18.21
2019-01-11T09:28:31.270Z,18.25
2019-01-11T09:29:40.645Z,18.18
2019-01-11T09:30:49.727Z,18.2
2019-01-11T09:31:59.838Z,18.18
2019-01-11T09:33:08.957Z,18.23
2019-01-11T09:34:17.780Z,18.2
2019-01-11T09:35:27.005Z,18.23
2019-01-11T09:36:36.087Z,18.27
2019-01-11T09:37:45.174Z,18.18
2019-01-11T09:38:54.517Z,18.18
2019-01-11T09:40:03.354Z,18.18
2019-01-11T09:41:12.537Z,18.27
2019-01-11T09:42:21.409Z,18.21
2019-01-11T09:43:30.494Z,18.25
2019-01-11T09:44:39.843Z,18.18
2019-01-11T09:45:48.657Z,18.2
2019-01-11T09:46:57.496Z,18.23
2019-01-11T09:48:06.607Z,18.23
2019-01-11T09:49:15.444Z,18.27
2019-01-11T09:50:24.258Z,18.21
2019-01-11T09:51:33.337Z,18.25
2019-01-11T09:52:42.275Z,18.17
2019-01-11T09:53:51.356Z,18.25
2019-01-11T09:55:00.199Z,18.25
2019-01-11T09:56:09.005Z,18.15
2019-01-11T09:57:18.081Z,18.21
2019-01-11T09:58:27.535Z,18.2
2019-01-11T09:59:39.568Z,18.21
2019-01-11T10:00:48.420Z,18.21
2019-01-11T10:02:03.869Z,18.2
2019-01-11T10:03:12.678Z,18.23
2019-01-11T10:04:21.818Z,18.21
2019-01-11T10:05:30.880Z,18.25
2019-01-11T10:06:40.236Z,18.2
2019-01-11T10:07:49.061Z,18.2
2019-01-11T10:08:57.892Z,18.23
2019-01-11T10:10:07.274Z,18.21
2019-01-11T10:11:16.354Z,18.18
2019-01-11T10:12:25.161Z,18.21
2019-01-11T10:13:33.990Z,18.21
2019-01-11T10:14:43.335Z,18.2
2019-01-11T10:15:52.239Z,18.21
2019-01-11T10:17:01.316Z,18.15
2019-01-11T10:18:10.116Z,18.17
2019-01-11T10:19:19.224Z,18.15
2019-01-11T10:20:28.034Z,18.18
2019-01-11T10:21:36.903Z,18.21
2019-01-11T10:22:46.274Z,18.21
2019-01-11T10:23:55.365Z,18.12
2019-01-11T10:25:05.014Z,18.2
2019-01-11T10:26:14.092Z,18.15
2019-01-11T10:27:23.289Z,18.15
2019-01-11T10:28:32.633Z,18.14
2019-01-11T10:29:41.447Z,18.17
2019-01-11T10:30:50.538Z,18.2
2019-01-11T10:32:06.888Z,18.2
2019-01-11T10:33:15.909Z,18.15
2019-01-11T10:34:24.990Z,18.21
2019-01-11T10:35:34.056Z,18.18
2019-01-11T10:36:43.130Z,18.18
2019-01-11T10:37:51.930Z,18.2
2019-01-11T10:39:01.318Z,18.23
2019-01-11T10:40:10.664Z,18.2
2019-01-11T10:41:19.512Z,18.23
2019-01-11T10:42:28.602Z,18.21
2019-01-11T10:43:37.673Z,18.21
2019-01-11T10:44:46.583Z,18.14
2019-01-11T10:45:55.406Z,18.2
2019-01-11T10:47:04.780Z,18.17
2019-01-11T10:48:13.626Z,18.18
2019-01-11T10:49:22.976Z,18.18
2019-01-11T10:50:32.054Z,18.14
2019-01-11T10:51:41.142Z,18.21
2019-01-11T10:52:49.964Z,18.21
2019-01-11T10:53:59.057Z,18.18
2019-01-11T10:55:07.900Z,18.2
2019-01-11T10:56:17.028Z,18.18
2019-01-11T10:57:25.825Z,18.21
2019-01-11T10:58:34.919Z,18.12
2019-01-11T10:59:44.007Z,18.17
2019-01-11T11:00:52.823Z,18.17
2019-01-11T11:02:02.017Z,18.11
2019-01-11T11:03:11.388Z,18.2
2019-01-11T11:04:20.479Z,18.2
2019-01-11T11:05:29.281Z,18.17
2019-01-11T11:06:38.386Z,18.21
2019-01-11T11:07:47.770Z,18.18
2019-01-11T11:08:56.590Z,18.14
2019-01-11T11:10:05.665Z,18.21
2019-01-11T11:11:18.925Z,18.17
2019-01-11T11:12:28.006Z,18.17
2019-01-11T11:13:37.412Z,18.21
2019-01-11T11:14:46.784Z,18.2
2019-01-11T11:15:56.149Z,18.2
2019-01-11T11:17:05.247Z,18.2
2019-01-11T11:18:14.093Z,18.18
2019-01-11T11:19:23.488Z,18.18
2019-01-11T11:20:32.586Z,18.23
2019-01-11T11:21:41.665Z,18.17
2019-01-11T11:22:50.748Z,18.1
2019-01-11T11:23:59.822Z,18.12
2019-01-11T11:25:08.761Z,18.2
2019-01-11T11:26:18.128Z,18.17
2019-01-11T11:27:27.471Z,18.2
2019-01-11T11:28:36.551Z,18.18
2019-01-11T11:29:45.365Z,18.21
2019-01-11T11:30:57.318Z,18.15
2019-01-11T11:32:06.674Z,18.17
2019-01-11T11:33:15.795Z,18.21
2019-01-11T11:34:25.403Z,18.21
2019-01-11T11:35:34.507Z,18.2
2019-01-11T11:36:43.588Z,18.2
2019-01-11T11:37:52.695Z,18.21
2019-01-11T11:39:01.509Z,18.27
2019-01-11T11:40:10.309Z,18.21
2019-01-11T11:41:19.908Z,18.21
2019-01-11T11:42:29.106Z,18.2
2019-01-11T11:43:38.236Z,18.17
2019-01-11T11:44:47.059Z,18.18
2019-01-11T11:45:56.161Z,18.26
2019-01-11T11:47:05.004Z,18.18
2019-01-11T11:48:14.476Z,18.23
2019-01-11T11:49:23.273Z,18.2
2019-01-11T11:50:32.107Z,18.23
2019-01-11T11:51:45.714Z,18.41
2019-01-11T11:52:54.542Z,18.26
2019-01-11T11:54:03.418Z,18.32
2019-01-11T11:55:12.492Z,18.3
2019-01-11T11:56:22.081Z,18.32
2019-01-11T11:57:31.185Z,18.3
2019-01-11T11:58:39.999Z,18.35
2019-01-11T11:59:49.200Z,18.29
2019-01-11T12:00:58.011Z,18.21
2019-01-11T12:02:06.858Z,18.23
2019-01-11T12:03:15.676Z,18.21
2019-01-11T12:04:25.018Z,18.23
2019-01-11T12:05:33.926Z,18.25
2019-01-11T12:06:42.761Z,18.23
2019-01-11T12:07:51.866Z,18.35
2019-01-11T12:09:01.197Z,18.21
2019-01-11T12:10:10.034Z,18.2
2019-01-11T12:11:19.219Z,18.3
2019-01-11T12:12:28.318Z,18.23
2019-01-11T12:13:39.095Z,18.2
2019-01-11T12:14:48.182Z,18.23
2019-01-11T12:15:57.001Z,18.18
2019-01-11T12:17:06.144Z,18.21
2019-01-11T12:18:14.966Z,18.21
2019-01-11T12:19:23.796Z,18.35
2019-01-11T12:20:33.126Z,18.35
2019-01-11T12:21:47.611Z,18.23
2019-01-11T12:22:56.574Z,18.12
2019-01-11T12:24:05.666Z,18.02
2019-01-11T12:25:14.737Z,17.81
2019-01-11T12:26:23.564Z,17.7
2019-01-11T12:27:32.898Z,17.75
2019-01-11T12:28:41.717Z,17.71
2019-01-11T12:29:50.785Z,17.75
2019-01-11T12:31:00.171Z,17.72
2019-01-11T12:32:09.292Z,17.84
2019-01-11T12:33:24.366Z,17.82
2019-01-11T12:34:33.494Z,17.78
2019-01-11T12:35:42.561Z,17.99
2019-01-11T12:36:51.372Z,18.02
2019-01-11T12:38:00.504Z,17.99
2019-01-11T12:39:09.643Z,18.12
2019-01-11T12:40:18.463Z,18.21
2019-01-11T12:41:27.832Z,18.23
2019-01-11T12:42:36.638Z,18.25
2019-01-11T12:43:45.775Z,18.2
2019-01-11T12:44:54.851Z,18.1
2019-01-11T12:46:03.788Z,17.95
2019-01-11T12:47:12.851Z,17.97
2019-01-11T12:48:22.230Z,17.92
2019-01-11T12:49:31.063Z,17.86
2019-01-11T12:50:39.922Z,17.81
2019-01-11T12:51:53.928Z,17.71
2019-01-11T12:53:03.131Z,17.71
2019-01-11T12:54:12.725Z,17.79
2019-01-11T12:55:21.803Z,17.87
2019-01-11T12:56:30.881Z,18.03
2019-01-11T12:57:40.017Z,17.96
2019-01-11T12:58:49.620Z,18.02
2019-01-11T12:59:58.692Z,18.1
2019-01-11T13:01:07.511Z,18.08
2019-01-11T13:02:16.608Z,18.15
2019-01-11T13:03:25.757Z,18.15
2019-01-11T13:04:34.571Z,18.18
2019-01-11T13:05:43.393Z,18.21
2019-01-11T13:06:52.741Z,18.27
2019-01-11T13:08:01.837Z,18.21
2019-01-11T13:09:11.486Z,18.26
2019-01-11T13:10:20.317Z,18.33
2019-01-11T13:11:29.442Z,18.32
2019-01-11T13:12:38.253Z,18.29
2019-01-11T13:13:47.118Z,18.45
2019-01-11T13:14:56.041Z,18.41
2019-01-11T13:16:04.870Z,18.36
2019-01-11T13:17:14.210Z,18.36
2019-01-11T13:18:23.309Z,18.29
2019-01-11T13:19:32.148Z,18.18
2019-01-11T13:20:41.263Z,18.35
2019-01-11T13:21:50.065Z,18.27
2019-01-11T13:23:06.447Z,18.2
2019-01-11T13:24:15.368Z,18.21
2019-01-11T13:25:24.197Z,18.2
2019-01-11T13:26:39.498Z,18.21
2019-01-11T13:27:48.302Z,18.21
2019-01-11T13:28:57.467Z,18.32
2019-01-11T13:30:06.618Z,18.29
2019-01-11T13:31:15.711Z,18.37
2019-01-11T13:32:24.612Z,18.36
2019-01-11T13:33:33.979Z,18.33
2019-01-11T13:34:42.804Z,18.32
2019-01-11T13:35:51.887Z,18.41
2019-01-11T13:37:01.234Z,18.42
2019-01-11T13:38:10.039Z,18.41
2019-01-11T13:39:19.115Z,18.45
2019-01-11T13:40:28.464Z,18.44
2019-01-11T13:41:37.279Z,18.45
2019-01-11T13:42:46.924Z,18.44
2019-01-11T13:43:56.151Z,18.48
2019-01-11T13:45:05.049Z,18.41
2019-01-11T13:46:13.892Z,18.44
2019-01-11T13:47:22.717Z,18.41
2019-01-11T13:48:31.797Z,18.51
2019-01-11T13:49:40.746Z,18.47
2019-01-11T13:50:50.120Z,18.44
2019-01-11T13:51:59.196Z,18.44
2019-01-11T13:53:14.555Z,18.52
2019-01-11T13:54:23.358Z,18.51
2019-01-11T13:55:32.871Z,18.48
2019-01-11T13:56:41.964Z,18.54
2019-01-11T13:57:50.767Z,18.5
2019-01-11T13:58:59.590Z,18.48
2019-01-11T14:00:08.975Z,18.54
2019-01-11T14:01:19.418Z,18.5
2019-01-11T14:02:28.237Z,18.52
2019-01-11T14:03:37.049Z,18.52
2019-01-11T14:04:45.864Z,18.44
2019-01-11T14:05:55.210Z,18.52
2019-01-11T14:07:04.375Z,18.55
2019-01-11T14:08:13.199Z,18.41
2019-01-11T14:09:22.808Z,18.55
2019-01-11T14:10:31.915Z,18.48
2019-01-11T14:11:41.240Z,18.55
2019-01-11T14:12:50.964Z,18.5
2019-01-11T14:14:00.286Z,18.55
2019-01-11T14:15:09.099Z,18.5
2019-01-11T14:16:18.423Z,18.48
2019-01-11T14:17:27.252Z,18.5
2019-01-11T14:18:36.346Z,18.55
2019-01-11T14:19:45.170Z,18.41
2019-01-11T14:20:54.248Z,18.36
2019-01-11T14:22:03.319Z,18.37
2019-01-11T14:23:18.861Z,18.21
2019-01-11T14:24:28.072Z,18.21
2019-01-11T14:25:36.909Z,18.2
2019-01-11T14:26:45.728Z,18.07
2019-01-11T14:27:55.088Z,18.07
2019-01-11T14:29:04.446Z,18.15
2019-01-11T14:30:13.526Z,18.2
2019-01-11T14:31:23.146Z,18.2
2019-01-11T14:32:31.975Z,18.25
2019-01-11T14:33:41.057Z,18.23
2019-01-11T14:34:49.872Z,18.26
2019-01-11T14:35:59.323Z,18.26
2019-01-11T14:37:08.128Z,18.2
2019-01-11T14:38:17.214Z,18.12
2019-01-11T14:39:26.149Z,18.1
2019-01-11T14:40:35.013Z,18.17
2019-01-11T14:41:44.360Z,18.21
2019-01-11T14:42:53.461Z,18.17
2019-01-11T14:44:02.297Z,18.27
2019-01-11T14:45:11.392Z,18.37
2019-01-11T14:46:20.487Z,18.29
2019-01-11T14:47:29.410Z,18.37
2019-01-11T14:48:38.757Z,18.36
2019-01-11T14:49:47.577Z,18.36
2019-01-11T14:50:56.378Z,18.41
2019-01-11T14:52:05.215Z,18.41
2019-01-11T14:53:14.669Z,18.47
2019-01-11T14:54:23.484Z,18.47
2019-01-11T14:55:32.805Z,18.48
2019-01-11T14:56:41.614Z,18.52